Terminal Aerodrome Forecast
Issued by NWS

Current Version | Previous Version | Text Only | Print | Product List | Glossary On
Versions: 1 2 3 4 5 6 7 8 9 10 11 12 13 14 15 16 17 18 19 20
823
FTUS41 KCAR 242328
TAFFVE
TAF
KFVE 242328Z 2500/2524 VRB03KT P6SM BKN200
     FM251500 18006KT P6SM SCT050
     FM252100 18006KT P6SM VCSH BKN050=

USA.gov is the U.S. government's official web portal to all federal, state and local government web resources and services.